Latest Weather Observations for Coondewanna

IDW60801

Issued at 5:33 am WST Tuesday 7 December 2021 (issued every 10 minutes, with the page automatically refreshed every 10 minutes)

About weather observations | Map of weather stations | Latest weather observations for WA | Other Formats
Station Details ID: 505051 Name: COONDEWANNA Lat: -22.96 Lon: 118.81 Height: 697.63 m
Data from the previous 72 hours. | See also: Recent months for locations in Western Australia
Date/Time
WST
Temp
°C
App
Temp
°C
Dew
Point
°C
Rel
Hum
%
Delta-T
°C
Wind Press
QNH
hPa
Press
MSL
hPa
Rain since
9am
mm
Dir  Spd
km/h
Gust
km/h
Spd
kts
Gust
kts
07/05:30am 23.9 23.2 11.3 45 7.3 NE 6 7 3 4 1011.7 1005.5 2.0
07/05:00am 25.0 23.9 10.5 40 8.3 NE 7 13 4 7 1011.4 1005.1 2.0
07/04:30am 25.7 24.7 10.3 38 8.8 ENE 6 9 3 5 1011.2 1004.9 2.0
07/04:00am 26.5 22.8 10.2 36 9.4 ESE 20 24 11 13 1010.9 1004.6 2.0
07/03:30am 26.3 25.1 11.6 40 8.6 E 9 13 5 7 1010.9 1004.6 2.0
07/03:00am 27.6 25.5 11.2 36 9.7 E 13 17 7 9 1010.7 1004.4 2.0
07/02:30am 28.3 25.4 10.9 34 10.2 ESE 17 22 9 12 1010.7 1004.4 2.0
07/02:00am 25.3 26.4 14.7 51 6.5 SE 2 9 1 5 1010.8 1004.5 2.0
07/01:30am 25.8 25.2 14.6 50 6.9 E 11 13 6 7 1010.3 1004.1 2.0
07/01:00am 26.8 26.0 12.8 42 8.4 E 9 11 5 6 1010.3 1004.1 2.0
07/12:30am 27.9 26.0 11.9 37 9.5 E 13 15 7 8 1010.2 1004.0 2.0
07/12:00am 26.6 26.2 14.0 46 7.7 ENE 9 11 5 6 1010.1 1003.9 2.0
 
Date/Time
WST
Temp
°C
App
Temp
°C
Dew
Point
°C
Rel
Hum
%
Delta-T
°C
Wind Press
QNH
hPa
Press
MSL
hPa
Rain since
9am
mm
Dir  Spd
km/h
Gust
km/h
Spd
kts
Gust
kts
06/11:30pm 26.3 26.4 14.4 48 7.3 NNE 7 11 4 6 1010.1 1003.9 2.0
06/11:00pm 26.8 27.0 14.2 46 7.8 NNE 6 9 3 5 1010.1 1003.9 2.0
06/10:30pm 28.0 27.4 13.5 41 8.9 NNE 9 13 5 7 1009.9 1003.6 2.0
06/10:00pm 28.4 28.6 14.3 42 8.7 NNE 6 7 3 4 1010.0 1003.7 2.0
06/09:30pm 30.0 28.9 10.5 30 11.5 NNE 7 11 4 6 1010.0 1003.7 2.0
06/09:00pm 30.6 29.1 10.5 29 11.9 NE 9 13 5 7 1009.7 1003.4 2.0
06/08:30pm 29.5 27.9 11.5 32 10.7 N 11 13 6 7 1009.4 1003.1 2.0
06/08:00pm 31.0 28.7 10.4 28 12.2 NE 13 20 7 11 1008.9 1002.7 2.0
06/07:30pm 31.3 28.3 10.6 28 12.2 ENE 17 22 9 12 1008.8 1002.6 2.0
06/07:00pm 30.7 24.9 11.6 31 11.5 ENE 33 46 18 25 1008.2 1001.9 2.0
06/06:30pm 30.0 27.1 12.9 35 10.4 NE 20 33 11 18 1008.9 1002.7 2.0
06/06:00pm 31.1 29.2 14.3 36 10.5 ENE 17 30 9 16 1009.8 1003.5 2.0
06/05:49pm 29.7 29.0 16.5 45 8.5 NE 15 24 8 13 1009.9 1003.6 2.0
06/05:30pm 29.9 30.7 16.3 43 8.7 SW 7 17 4 9 1009.4 1003.1 2.0
06/05:08pm 31.9 29.8 11.1 28 12.4 SW 13 32 7 17 1008.1 1001.8 0.8
06/05:00pm 38.0 35.5 4.8 13 18.6 SSE 7 24 4 13 1007.1 1000.8 0.0
06/04:50pm 38.4 34.6 4.0 12 19.0 ESE 13 20 7 11 1006.4 1000.1 0.0
06/04:30pm 38.9 35.7 3.1 11 19.6 E 9 15 5 8 1006.2 999.9 0.0
06/04:00pm 39.3 34.6 3.4 11 19.8 E 17 28 9 15 1006.3 1000.0 0.0
06/03:30pm 39.2 34.2 4.6 12 19.4 N 20 30 11 16 1006.5 1000.2 0.0
06/03:00pm 39.2 36.1 3.4 11 19.7 SSE 9 13 5 7 1006.9 1000.6 0.0
06/02:30pm 39.0 36.2 3.2 11 19.6 NE 7 15 4 8 1007.2 1000.9 0.0
06/02:00pm 38.5 35.3 2.8 11 19.4 S 9 15 5 8 1007.6 1001.3 0.0
06/01:30pm 38.6 35.4 2.9 11 19.4 SSW 9 19 5 10 1007.9 1001.6 0.0
06/01:00pm 38.9 34.6 3.1 11 19.6 N 15 26 8 14 1008.2 1001.9 0.0
06/12:30pm 39.0 36.1 4.4 12 19.3 WNW 9 17 5 9 1008.5 1002.2 0.0
06/12:00pm 38.5 33.6 4.1 12 19.1 NE 19 26 10 14 1008.9 1002.7 0.0
06/11:30am 38.6 34.7 5.3 13 18.8 NE 15 26 8 14 1009.2 1002.9 0.0
06/11:00am 38.2 33.5 5.0 13 18.6 ENE 19 33 10 18 1009.4 1003.1 0.0
06/10:30am 37.3 32.6 5.3 14 17.9 ENE 19 33 10 18 1009.8 1003.5 0.0
06/10:00am 36.7 31.0 4.9 14 17.7 ENE 24 37 13 20 1010.0 1003.7 0.0
06/09:30am 36.3 30.7 5.5 15 17.2 ENE 24 35 13 19 1010.2 1004.0 0.0
06/09:00am 35.1 29.1 5.5 16 16.5 ENE 26 37 14 20 1010.4 1004.2 0.0
06/08:30am 35.1 29.1 5.5 16 16.5 ENE 26 33 14 18 1010.7 1004.4 0.0
06/08:00am 33.6 26.8 5.2 17 15.6 ENE 30 39 16 21 1010.9 1004.6 0.0
06/07:30am 33.3 27.8 5.8 18 15.2 ENE 24 32 13 17 1011.0 1004.7 0.0
06/07:00am 31.8 28.8 2.0 15 15.4 SW 7 11 4 6 1010.9 1004.6 0.0
06/06:30am 30.4 27.7 2.6 17 14.4 WSW 6 9 3 5 1010.7 1004.4 0.0
06/06:00am 27.4 26.0 3.8 22 12.3 CALM 0 0 0 0 1010.6 1004.3 0.0
06/05:30am 25.7 24.1 2.4 22 11.7 CALM 0 4 0 2 1010.1 1003.9 0.0
06/05:00am 27.3 24.6 2.4 20 12.6 S 6 9 3 5 1009.7 1003.4 0.0
06/04:30am 26.3 24.9 3.5 23 11.7 CALM 0 0 0 0 1009.2 1002.9 0.0
06/04:00am 29.8 26.9 1.3 16 14.4 SW 6 9 3 5 1008.9 1002.7 0.0
06/03:30am 30.8 26.9 1.2 15 15.0 SW 11 15 6 8 1008.8 1002.6 0.0
06/03:00am 31.5 26.6 1.8 15 15.3 SW 17 22 9 12 1008.4 1002.1 0.0
06/02:30am 31.4 27.7 2.6 16 15.0 SW 11 15 6 8 1008.5 1002.2 0.0
06/02:00am 31.2 28.4 3.3 17 14.7 SSW 7 11 4 6 1008.7 1002.4 0.0
06/01:30am 30.5 29.2 4.3 19 13.9 CALM 0 6 0 3 1008.8 1002.6 0.0
06/01:00am 30.7 28.4 5.9 21 13.6 W 7 11 4 6 1009.1 1002.8 0.0
06/12:30am 31.0 28.3 5.4 20 13.9 ENE 9 13 5 7 1008.8 1002.6 0.0
06/12:00am 29.8 28.8 5.8 22 13.1 CALM 0 0 0 0 1009.2 1002.9 0.0
 
Date/Time
WST
Temp
°C
App
Temp
°C
Dew
Point
°C
Rel
Hum
%
Delta-T
°C
Wind Press
QNH
hPa
Press
MSL
hPa
Rain since
9am
mm
Dir  Spd
km/h
Gust
km/h
Spd
kts
Gust
kts
05/11:30pm 31.3 30.3 5.7 20 14.0 CALM 0 6 0 3 1009.4 1003.1 0.0
05/11:00pm 31.9 29.2 3.8 17 15.0 SSW 7 11 4 6 1009.6 1003.3 0.0
05/10:30pm 30.7 29.6 5.2 20 13.8 CALM 0 0 0 0 1009.7 1003.4 0.0
05/10:00pm 30.3 29.2 4.9 20 13.7 CALM 0 0 0 0 1009.6 1003.3 0.0
05/09:30pm 30.4 29.3 4.9 20 13.7 CALM 0 0 0 0 1009.7 1003.4 0.0
05/09:00pm 31.2 28.8 4.1 18 14.5 SSW 6 9 3 5 1009.5 1003.2 0.0
05/08:30pm 33.5 30.3 3.3 15 16.1 SSW 9 11 5 6 1009.3 1003.0 0.0
05/08:00pm 34.8 31.7 3.4 14 16.9 SSW 9 11 5 6 1009.1 1002.8 0.0
05/07:30pm 35.9 32.5 2.1 12 17.9 SW 9 11 5 6 1008.8 1002.6 0.0
05/07:00pm 37.4 33.6 2.0 11 18.9 SW 11 15 6 8 1008.5 1002.2 0.0
05/06:30pm 38.5 34.7 1.5 10 19.7 SSW 11 15 6 8 1008.2 1001.9 0.0
05/06:00pm 39.4 33.6 2.2 10 20.1 SW 22 28 12 15 1007.9 1001.6 0.0
05/05:30pm 39.8 35.5 1.0 9 20.6 SW 13 22 7 12 1007.6 1001.3 0.0
05/05:00pm 39.3 36.3 2.1 10 20.1 ESE 7 13 4 7 1007.7 1001.4 0.0
05/04:30pm 39.2 35.8 2.0 10 20.0 SW 9 17 5 9 1007.7 1001.4 0.0
05/04:00pm 39.6 36.3 2.3 10 20.3 WSW 9 20 5 11 1007.8 1001.5 0.0
05/03:30pm 40.9 36.7 1.8 9 21.2 W 13 24 7 13 1007.9 1001.6 0.0
05/03:00pm 39.5 35.4 2.2 10 20.2 SE 13 20 7 11 1008.3 1002.0 0.0
05/02:30pm 40.4 34.7 2.9 10 20.6 S 22 35 12 19 1008.6 1002.3 0.0
05/02:00pm 38.5 33.7 2.8 11 19.4 SSE 17 30 9 16 1009.2 1002.9 0.0
05/01:30pm 39.8 34.8 3.8 11 20.0 SSW 19 33 10 18 1009.5 1003.2 0.0
05/01:00pm 38.5 33.8 5.2 13 18.8 SSE 19 41 10 22 1009.9 1003.6 0.0
05/12:30pm 38.2 34.2 5.0 13 18.6 SSW 15 33 8 18 1010.2 1004.0 0.0
05/12:00pm 37.4 33.7 6.4 15 17.7 S 15 30 8 16 1010.9 1004.6 0.0
05/11:30am 37.7 33.5 5.6 14 18.1 SE 17 32 9 17 1011.3 1005.0 0.0
05/11:00am 36.6 33.7 6.7 16 17.1 S 11 20 6 11 1011.7 1005.5 0.0
05/10:30am 35.8 32.4 6.1 16 16.7 ESE 13 22 7 12 1012.2 1005.9 0.0
05/10:00am 35.8 32.4 7.8 18 16.2 ESE 15 28 8 15 1012.5 1006.2 0.0
05/09:30am 33.9 29.6 7.0 19 15.2 E 19 28 10 15 1012.8 1006.6 0.0
05/09:00am 33.4 29.7 8.1 21 14.5 E 17 26 9 14 1013.1 1006.9 0.0
05/08:30am 31.5 27.2 7.9 23 13.4 E 20 28 11 15 1013.3 1007.1 0.0
05/08:00am 30.6 26.6 8.3 25 12.7 E 19 28 10 15 1013.4 1007.2 0.0
05/07:30am 30.2 26.3 8.6 26 12.3 E 19 28 10 15 1013.7 1007.4 0.0
05/07:00am 29.0 25.1 8.7 28 11.5 E 19 28 10 15 1013.4 1007.2 0.0
05/06:30am 28.0 25.1 9.8 32 10.5 ESE 15 19 8 10 1013.2 1007.0 0.0
05/06:00am 27.4 25.5 10.6 35 9.8 E 11 17 6 9 1012.9 1006.7 0.0
05/05:30am 26.7 24.8 10.4 36 9.4 E 11 17 6 9 1012.5 1006.2 0.0
05/05:00am 26.5 25.5 10.2 36 9.4 ESE 6 13 3 7 1012.3 1006.0 0.0
05/04:30am 27.0 25.3 9.8 34 9.9 ESE 9 13 5 7 1011.9 1005.7 0.0
05/04:00am 27.7 25.5 9.5 32 10.4 E 11 17 6 9 1011.6 1005.4 0.0
05/03:30am 27.5 26.0 9.3 32 10.4 E 7 13 4 7 1011.6 1005.4 0.0
05/03:00am 28.8 27.0 9.5 30 11.1 E 9 11 5 6 1011.4 1005.1 0.0
05/02:30am 29.9 27.3 9.4 28 11.8 ENE 13 20 7 11 1011.2 1004.9 0.0
05/02:00am 30.3 27.7 9.2 27 12.2 ENE 13 19 7 10 1011.1 1004.8 0.0
05/01:30am 29.8 28.1 7.7 25 12.4 E 6 13 3 7 1011.1 1004.8 0.0
05/01:00am 31.0 28.3 7.5 23 13.2 E 11 19 6 10 1011.1 1004.8 0.0
05/12:30am 32.2 30.0 6.4 20 14.3 SSE 7 11 4 6 1011.4 1005.1 0.0
05/12:00am 29.4 27.9 6.7 24 12.5 ENE 4 7 2 4 1011.3 1005.0 0.0
 
Date/Time
WST
Temp
°C
App
Temp
°C
Dew
Point
°C
Rel
Hum
%
Delta-T
°C
Wind Press
QNH
hPa
Press
MSL
hPa
Rain since
9am
mm
Dir  Spd
km/h
Gust
km/h
Spd
kts
Gust
kts
04/11:30pm 30.7 28.8 6.6 22 13.3 ENE 6 11 3 6 1011.4 1005.1 0.0
04/11:00pm 32.9 30.3 6.2 19 14.9 ENE 9 11 5 6 1011.5 1005.3 0.0
04/10:30pm 33.9 31.0 6.3 18 15.4 ENE 11 13 6 7 1011.7 1005.5 0.0
04/10:00pm 34.6 31.4 5.1 16 16.3 ENE 11 20 6 11 1011.9 1005.7 0.0
04/09:30pm 32.2 30.1 5.7 19 14.6 SW 6 6 3 3 1011.5 1005.3 0.0
04/09:00pm 32.7 31.5 4.5 17 15.3 CALM 0 0 0 0 1011.3 1005.0 0.0
04/08:30pm 32.9 30.6 4.6 17 15.3 SW 6 7 3 4 1010.8 1004.5 0.0
04/08:00pm 34.9 31.8 3.5 14 16.9 SW 9 9 5 5 1010.4 1004.2 0.0
04/07:30pm 36.2 32.9 2.3 12 18.0 SW 9 11 5 6 1010.2 1004.0 0.0
04/07:00pm 37.3 33.9 1.9 11 18.9 SSW 9 13 5 7 1010.0 1003.7 0.0
04/06:30pm 38.6 33.1 1.6 10 19.7 SW 20 24 11 13 1009.5 1003.2 0.0
04/06:00pm 39.7 35.2 2.4 10 20.3 WSW 15 26 8 14 1009.1 1002.8 0.0
04/05:30pm 39.9 35.1 2.5 10 20.3 WSW 17 24 9 13 1008.8 1002.6 0.0
04/05:00pm 39.6 36.8 2.3 10 20.2 N 6 13 3 7 1008.6 1002.3 0.0
04/04:30pm 38.8 34.6 1.7 10 19.8 WSW 13 20 7 11 1008.6 1002.3 0.0
04/04:00pm 38.9 35.5 1.8 10 19.9 N 9 22 5 12 1008.7 1002.4 0.0
04/03:30pm 40.5 36.2 3.0 10 20.6 W 15 20 8 11 1008.9 1002.7 0.0
04/03:00pm 40.1 36.8 2.7 10 20.5 NW 9 20 5 11 1009.1 1002.8 0.0
04/02:30pm 39.7 35.6 2.4 10 20.2 NNW 13 26 7 14 1009.4 1003.1 0.0
04/02:00pm 40.8 35.9 1.7 9 21.2 WNW 17 33 9 18 1009.8 1003.5 0.0
04/01:30pm 40.8 36.6 1.7 9 21.1 NNW 13 24 7 13 1010.3 1004.1 0.0
04/01:00pm 38.6 34.0 1.6 10 19.8 WSW 15 28 8 15 1010.8 1004.5 0.0
04/12:30pm 38.8 33.9 1.7 10 19.8 WSW 17 32 9 17 1011.2 1004.9 0.0
04/12:00pm 38.6 34.4 1.6 10 19.7 SSW 13 22 7 12 1011.7 1005.5 0.0
04/11:30am 38.2 34.2 2.6 11 19.2 S 13 24 7 13 1012.1 1005.8 0.0
04/11:00am 38.5 34.5 2.8 11 19.4 S 13 24 7 13 1012.6 1006.3 0.0
04/10:30am 37.1 32.8 3.0 12 18.4 SSE 15 32 8 17 1013.0 1006.8 0.0
04/10:00am 36.6 31.4 2.6 12 18.2 SSE 19 28 10 15 1013.4 1007.2 0.0
04/09:30am 35.4 32.0 3.9 14 17.1 SSW 11 20 6 11 1013.7 1007.4 0.0
04/09:00am 34.2 31.7 4.8 16 16.1 SW 7 15 4 8 1013.9 1007.6 0.0
04/08:30am 33.4 31.5 6.6 19 15.0 W 6 13 3 7 1014.1 1007.9 0.0
04/08:00am 31.7 29.8 6.7 21 13.9 SW 6 9 3 5 1014.2 1008.0 0.0
04/07:30am 31.0 29.3 7.5 23 13.2 SE 6 11 3 6 1014.1 1007.9 0.0
04/07:00am 30.1 27.4 7.3 24 12.7 S 11 15 6 8 1014.0 1007.7 0.0
04/06:30am 29.2 26.3 6.6 24 12.4 S 11 15 6 8 1013.9 1007.6 0.0
04/06:00am 24.7 23.2 5.0 28 10.3 SW 2 7 1 4 1013.8 1007.5 0.0

Other formats

Comma delimited format used in spreadsheet applications
http://www.bom.gov.au/fwo/IDW60801/IDW60801.99312.axf

JavaScript Object Notation format (JSON) in row-major order
http://www.bom.gov.au/fwo/IDW60801/IDW60801.99312.json

Data quality

Most of these data are generated automatically and are frequently updated. Quality checks on data are not normally performed. It is possible for incorrect values to appear. Refer to information at About Latest Weather Observations and please check the disclaimer before using these data.